• Join FlightAware (Why Join?)
  • Login
  • US Flag 
04:42PM EST


 

Airport Tracker/Info


-or-


 

Live Flight TrackerFlight Track Log ✈ CDG4880 ✈ 15-May-2014 ✈ ZSWY / WUS - ZSAM / XMN

Flight Track Log - Related Links

Times and Time Zones

All times are in EDT time to prevent confusion due to time zone crossing. See the CDG4880 flight status page for this flight to view local times or setup timezone preferences in your user account.

Time Position Orientation Groundspeed Altitude Reporting Facility
EDT Latitude Longitude Course Direction KTS MPH feet Rate Location/Type
08:12AM 27.0846 118.0266 178° South  Level Estimated
08:13AM 27.0074 118.0298 178° South  Level Estimated
08:14AM 26.9302 118.0329 178° South  Level Estimated
08:15AM 26.8530 118.0360 178° South  Level Estimated
08:16AM 26.7759 118.0392 178° South  Level Estimated
08:17AM 26.6987 118.0423 178° South  Level Estimated
08:18AM 26.6215 118.0454 178° South  Level Estimated
08:19AM 26.5443 118.0485 178° South  Level Estimated
08:20AM 26.4671 118.0516 178° South  Level Estimated
08:21AM 26.3900 118.0547 178° South  Level Estimated
08:22AM 26.3128 118.0578 178° South  Level Estimated
08:23AM 26.2356 118.0609 178° South  Level Estimated
08:24AM 26.1584 118.0640 178° South  Level Estimated
08:25AM 26.0813 118.0671 178° South  Level Estimated
08:26AM 26.0041 118.0702 178° South  Level Estimated
08:27AM 25.9269 118.0732 178° South  Level Estimated
08:28AM 25.8498 118.0763 178° South  Level Estimated
08:29AM 25.7726 118.0794 178° South  Level Estimated
08:30AM 25.6954 118.0825 178° South  Level Estimated
08:31AM 25.6182 118.0855 178° South  Level Estimated
08:32AM 25.5410 118.0886 178° South  Level Estimated
08:33AM 25.4639 118.0916 178° South  Level Estimated
08:34AM 25.3867 118.0947 178° South  Level Estimated
08:35AM 25.3095 118.0977 178° South  Level Estimated
08:36AM 25.2323 118.1008 178° South  Level Estimated
08:37AM 25.1552 118.1038 178° South  Level Estimated
08:38AM 25.0780 118.1068 178° South  Level Estimated
08:39AM 25.0008 118.1099 178° South  Level Estimated
08:40AM 24.9236 118.1129 178° South  Level Estimated
08:41AM 24.8465 118.1159 178° South  Level Estimated
08:42AM 24.7693 118.1189 178° South  Level Estimated
08:43AM 24.6921 118.1220 178° South  Level Estimated
08:44AM 24.6149 118.1250 178° South  Level Estimated
08:45AM 24.5440 118.1277 178° South  Level Estimated
08:46AM 24.5440 118.1277 North  Level Estimated
08:47AM 24.5440 118.1277 North  Level Estimated
08:48AM 24.5440 118.1277 North  Level Estimated
08:49AM 24.5440 118.1277 North  Level Estimated
08:50AM 24.5440 118.1277 North  Level Estimated
08:51AM 24.5440 118.1277 North  Level Estimated